createdAt,value
2018-07-04T00:00:18.460Z,33.70
2018-07-04T00:02:57.337Z,34.20
2018-07-04T00:05:36.588Z,33.70
2018-07-04T00:08:15.519Z,33.90
2018-07-04T00:10:54.432Z,34.50
2018-07-04T00:13:33.383Z,34.70
2018-07-04T00:16:12.377Z,34.60
2018-07-04T00:18:51.331Z,34.80
2018-07-04T00:21:30.295Z,35.40
2018-07-04T00:24:09.307Z,34.20
2018-07-04T00:26:48.413Z,34.90
2018-07-04T00:29:27.477Z,35.20
2018-07-04T00:32:06.328Z,35.60
2018-07-04T00:34:45.268Z,35.10
2018-07-04T00:42:30.346Z,35.50
2018-07-04T00:45:09.259Z,35.90
2018-07-04T00:47:48.181Z,35.40
2018-07-04T00:50:27.904Z,36.00
2018-07-04T00:53:06.733Z,35.70
2018-07-04T00:55:45.634Z,36.10
2018-07-04T00:58:24.547Z,37.30
2018-07-04T01:01:03.539Z,36.40
2018-07-04T01:03:42.521Z,36.90
2018-07-04T01:06:21.468Z,37.00
2018-07-04T01:09:00.557Z,37.50
2018-07-04T01:11:39.444Z,37.60
2018-07-04T01:14:19.639Z,37.10
2018-07-04T01:16:58.759Z,36.60
2018-07-04T01:19:37.610Z,36.40
2018-07-04T01:22:16.483Z,36.40
2018-07-04T01:24:55.417Z,35.50
2018-07-04T01:27:36.190Z,36.00
2018-07-04T01:30:14.983Z,35.70
2018-07-04T01:32:54.041Z,36.80
2018-07-04T01:35:33.012Z,37.90
2018-07-04T01:38:12.128Z,37.30
2018-07-04T01:40:51.110Z,36.80
2018-07-04T01:43:30.133Z,36.50
2018-07-04T01:46:08.975Z,36.30
2018-07-04T01:51:22.153Z,36.30
2018-07-04T01:54:00.920Z,37.70
2018-07-04T01:56:39.748Z,37.80
2018-07-04T01:59:18.684Z,37.20
2018-07-04T02:04:31.017Z,37.60
2018-07-04T02:09:43.050Z,38.00
2018-07-04T02:12:21.857Z,38.60
2018-07-04T02:15:00.924Z,38.10
2018-07-04T02:17:39.937Z,38.40
2018-07-04T02:20:18.915Z,38.50
2018-07-04T02:22:58.140Z,38.60
2018-07-04T02:25:37.048Z,38.80
2018-07-04T02:28:15.868Z,38.90
2018-07-04T02:30:54.789Z,39.10
2018-07-04T02:33:33.784Z,39.20
2018-07-04T02:36:12.750Z,39.20
2018-07-04T02:38:51.843Z,39.70
2018-07-04T02:41:30.856Z,39.00
2018-07-04T02:44:09.916Z,38.90
2018-07-04T02:46:48.912Z,39.60
2018-07-04T02:49:28.099Z,39.40
2018-07-04T02:52:06.972Z,39.60
2018-07-04T02:54:46.075Z,39.60
2018-07-04T02:57:25.755Z,40.00
2018-07-04T03:00:04.698Z,40.40
2018-07-04T03:02:43.676Z,40.50
2018-07-04T03:05:22.584Z,39.80
2018-07-04T03:08:01.517Z,39.50
2018-07-04T03:10:40.501Z,40.20
2018-07-04T03:13:19.446Z,39.90
2018-07-04T03:15:58.459Z,40.50
2018-07-04T03:18:37.324Z,40.30
2018-07-04T03:21:16.224Z,41.00
2018-07-04T03:23:55.244Z,40.90
2018-07-04T03:26:34.299Z,41.50
2018-07-04T03:29:13.144Z,40.70
2018-07-04T03:31:52.060Z,41.30
2018-07-04T03:34:31.574Z,41.30
2018-07-04T03:37:10.356Z,40.20
2018-07-04T03:39:49.322Z,40.80
2018-07-04T03:42:28.172Z,40.70
2018-07-04T03:45:07.237Z,40.70
2018-07-04T03:47:46.100Z,40.60
2018-07-04T03:50:24.948Z,41.00
2018-07-04T03:53:03.900Z,41.30
2018-07-04T03:55:42.743Z,40.90
2018-07-04T03:58:21.411Z,40.90
2018-07-04T04:01:00.360Z,40.20
2018-07-04T04:03:39.343Z,40.40
2018-07-04T04:06:18.163Z,40.90
2018-07-04T04:08:57.189Z,41.00
2018-07-04T04:11:36.093Z,40.60
2018-07-04T04:14:15.022Z,41.50
2018-07-04T04:16:54.207Z,41.90
2018-07-04T04:19:33.911Z,41.30
2018-07-04T04:22:14.047Z,41.80
2018-07-04T04:24:53.256Z,41.10
2018-07-04T04:27:32.457Z,42.30
2018-07-04T04:30:11.460Z,42.20
2018-07-04T04:32:50.395Z,41.60
2018-07-04T04:35:29.928Z,41.90
2018-07-04T04:38:08.888Z,42.10
2018-07-04T04:40:48.000Z,42.50
2018-07-04T04:43:27.056Z,42.10
2018-07-04T04:59:06.119Z,42.10
2018-07-04T05:01:45.118Z,42.40
2018-07-04T05:04:24.103Z,43.00
2018-07-04T05:07:02.783Z,43.40
2018-07-04T05:09:41.756Z,44.00
2018-07-04T05:12:20.668Z,42.80
2018-07-04T05:14:59.607Z,42.10
2018-07-04T05:17:38.553Z,43.20
2018-07-04T05:20:17.550Z,44.10
2018-07-04T05:22:56.394Z,43.10
2018-07-04T05:25:35.196Z,44.40
2018-07-04T05:28:14.456Z,44.80
2018-07-04T05:30:54.293Z,45.40
2018-07-04T05:33:33.317Z,44.60
2018-07-04T05:36:12.272Z,44.90
2018-07-04T05:38:51.100Z,45.30
2018-07-04T05:41:30.044Z,44.70
2018-07-04T05:44:09.034Z,43.30
2018-07-04T05:46:48.227Z,45.30
2018-07-04T05:49:27.167Z,43.70
2018-07-04T05:52:06.108Z,46.10
2018-07-04T05:54:44.985Z,46.00
2018-07-04T05:57:24.225Z,44.20
2018-07-04T06:00:03.285Z,44.60
2018-07-04T06:02:42.249Z,43.50
2018-07-04T06:05:21.240Z,44.20
2018-07-04T06:08:00.480Z,43.80
2018-07-04T06:10:39.557Z,43.70
2018-07-04T06:13:19.049Z,44.60
2018-07-04T06:15:58.584Z,43.50
2018-07-04T06:18:37.444Z,40.90
2018-07-04T06:21:16.257Z,41.40
2018-07-04T06:23:55.487Z,40.60
2018-07-04T06:26:34.445Z,41.00
2018-07-04T06:29:13.440Z,40.70
2018-07-04T06:31:52.447Z,41.10
2018-07-04T06:34:31.492Z,41.50
2018-07-04T06:37:10.515Z,40.10
2018-07-04T06:39:36.916Z,40.90
2018-07-04T06:42:03.891Z,40.80
2018-07-04T06:44:30.291Z,41.00
2018-07-04T06:46:56.758Z,39.70
2018-07-04T06:49:23.177Z,39.40
2018-07-04T06:51:49.599Z,39.90
2018-07-04T06:54:16.405Z,39.50
2018-07-04T06:56:42.789Z,39.10
2018-07-04T06:59:09.486Z,40.70
2018-07-04T07:01:36.348Z,39.20
2018-07-04T07:04:15.259Z,40.10
2018-07-04T07:06:54.320Z,39.40
2018-07-04T07:09:33.184Z,39.80
2018-07-04T07:12:12.149Z,39.10
2018-07-04T07:14:51.062Z,37.50
2018-07-04T07:20:03.405Z,37.90
2018-07-04T07:22:42.284Z,37.60
2018-07-04T07:25:21.261Z,34.80
2018-07-04T07:28:00.674Z,36.20
2018-07-04T07:30:39.606Z,37.00
2018-07-04T07:33:18.592Z,37.10
2018-07-04T07:35:57.299Z,36.70
2018-07-04T07:38:36.139Z,37.50
2018-07-04T07:41:15.089Z,37.20
2018-07-04T07:43:54.235Z,37.90
2018-07-04T08:02:12.983Z,33.60
2018-07-04T08:04:51.915Z,33.80
2018-07-04T08:07:30.858Z,34.40
2018-07-04T08:12:43.283Z,33.40
2018-07-04T08:15:22.401Z,33.10
2018-07-04T08:18:01.712Z,32.10
2018-07-04T08:20:40.554Z,32.40
2018-07-04T08:23:19.492Z,32.80
2018-07-04T08:25:58.398Z,32.90
2018-07-04T08:28:37.279Z,34.90
2018-07-04T08:31:16.165Z,32.60
2018-07-04T08:36:28.297Z,32.80
2018-07-04T08:39:07.509Z,31.40
2018-07-04T08:41:46.453Z,31.10
2018-07-04T08:46:58.566Z,30.80
2018-07-04T08:52:10.624Z,31.80
2018-07-04T08:54:49.807Z,31.30
2018-07-04T08:57:28.835Z,32.50
2018-07-04T09:00:08.277Z,32.10
2018-07-04T09:02:47.873Z,30.20
2018-07-04T09:05:26.793Z,30.60
2018-07-04T09:08:05.797Z,30.60
2018-07-04T09:10:44.766Z,32.00
2018-07-04T09:13:24.601Z,31.30
2018-07-04T09:16:03.547Z,31.30
2018-07-04T09:18:43.116Z,31.00
2018-07-04T09:21:22.011Z,31.40
2018-07-04T09:24:00.924Z,32.80
2018-07-04T09:26:40.030Z,31.90
2018-07-04T09:29:19.014Z,31.80
2018-07-04T09:31:57.983Z,32.30
2018-07-04T09:34:37.810Z,33.70
2018-07-04T09:37:16.569Z,34.70
2018-07-04T09:39:55.346Z,34.00
2018-07-04T09:42:34.180Z,35.60
2018-07-04T09:47:46.231Z,34.80
2018-07-04T09:50:25.047Z,35.50
2018-07-04T09:53:04.048Z,34.70
2018-07-04T09:55:43.088Z,33.90
2018-07-04T09:58:22.240Z,34.60
2018-07-04T10:01:35.559Z,35.40
2018-07-04T10:04:14.642Z,35.90
2018-07-04T10:06:53.535Z,36.70
2018-07-04T10:09:32.418Z,37.00
2018-07-04T10:12:11.585Z,38.10
2018-07-04T10:14:50.485Z,39.00
2018-07-04T10:17:30.330Z,38.80
2018-07-04T10:20:09.168Z,39.50
2018-07-04T10:22:48.128Z,40.20
2018-07-04T10:25:27.458Z,40.70
2018-07-04T10:28:06.461Z,40.80
2018-07-04T10:33:18.411Z,42.80
2018-07-04T10:35:58.480Z,42.00
2018-07-04T10:38:37.145Z,40.90
2018-07-04T10:41:16.932Z,43.10
2018-07-04T10:43:56.389Z,41.10
2018-07-04T10:46:35.283Z,39.00
2018-07-04T10:49:14.895Z,39.10
2018-07-04T10:51:53.810Z,39.70
2018-07-04T10:54:32.627Z,37.50
2018-07-04T10:57:11.609Z,37.20
2018-07-04T11:02:24.445Z,41.40
2018-07-04T11:05:03.422Z,39.50
2018-07-04T11:07:42.457Z,37.70
2018-07-04T11:10:21.386Z,38.00
2018-07-04T11:13:00.491Z,37.60
2018-07-04T11:15:39.432Z,37.90
2018-07-04T11:18:18.632Z,36.00
2018-07-04T11:20:57.629Z,35.90
2018-07-04T11:23:36.528Z,36.40
2018-07-04T11:26:15.454Z,36.90
2018-07-04T11:28:54.425Z,37.20
2018-07-04T11:31:34.268Z,38.10
2018-07-04T11:34:13.192Z,39.30
2018-07-04T11:39:25.262Z,39.70
2018-07-04T11:42:04.287Z,38.60
2018-07-04T11:44:43.269Z,39.50
2018-07-04T11:47:09.709Z,39.20
2018-07-04T11:49:36.137Z,39.20
2018-07-04T11:52:02.572Z,39.80
2018-07-04T11:54:29.029Z,41.80
2018-07-04T11:56:55.477Z,39.10
2018-07-04T11:59:21.926Z,38.90
2018-07-04T12:01:48.362Z,37.10
2018-07-04T12:04:27.242Z,37.50
2018-07-04T12:07:01.286Z,38.10
2018-07-04T12:09:27.875Z,35.90
2018-07-04T12:11:54.353Z,33.90
2018-07-04T12:16:47.728Z,34.80
2018-07-04T12:19:14.755Z,34.20
2018-07-04T12:21:41.293Z,34.90
2018-07-04T12:24:07.786Z,33.70
2018-07-04T12:26:34.251Z,33.20
2018-07-04T12:29:00.656Z,34.40
2018-07-04T12:31:27.083Z,33.90
2018-07-04T12:33:53.512Z,34.10
2018-07-04T12:36:19.976Z,34.80
2018-07-04T12:38:46.387Z,35.10
2018-07-04T12:41:12.815Z,34.70
2018-07-04T12:43:39.299Z,35.60
2018-07-04T12:46:06.178Z,33.70
2018-07-04T12:51:00.294Z,35.30
2018-07-04T12:53:26.727Z,35.10
2018-07-04T12:56:05.648Z,35.70
2018-07-04T12:58:44.781Z,35.60
2018-07-04T13:01:23.691Z,36.10
2018-07-04T13:04:02.636Z,37.20
2018-07-04T13:06:41.743Z,37.20
2018-07-04T13:09:20.718Z,39.10
2018-07-04T13:12:00.219Z,38.20
2018-07-04T13:14:39.360Z,39.80
2018-07-04T13:17:18.152Z,39.40
2018-07-04T13:19:57.107Z,40.70
2018-07-04T13:22:36.038Z,42.70
2018-07-04T13:25:14.957Z,42.50
2018-07-04T13:27:53.732Z,44.60
2018-07-04T13:30:32.815Z,44.90
2018-07-04T13:33:11.791Z,46.30
2018-07-04T13:35:50.952Z,47.60
2018-07-04T13:38:29.872Z,48.20
2018-07-04T13:41:08.983Z,47.70
2018-07-04T13:43:47.884Z,48.90
2018-07-04T13:46:26.976Z,51.20
2018-07-04T13:49:05.992Z,49.10
2018-07-04T13:51:45.046Z,52.20
2018-07-04T13:54:24.368Z,53.60
2018-07-04T13:57:03.320Z,58.50
2018-07-04T13:59:42.160Z,57.10
2018-07-04T14:02:20.908Z,59.40
2018-07-04T14:04:59.900Z,60.00
2018-07-04T14:07:38.932Z,63.20
2018-07-04T14:10:17.942Z,62.80
2018-07-04T14:12:56.792Z,64.10
2018-07-04T14:18:08.864Z,64.80
2018-07-04T14:20:47.670Z,64.60
2018-07-04T14:23:26.745Z,63.00
2018-07-04T14:26:05.736Z,62.50
2018-07-04T14:28:44.678Z,62.70
2018-07-04T14:31:23.628Z,63.20
2018-07-04T14:34:02.558Z,63.60
2018-07-04T14:36:41.497Z,65.00
2018-07-04T14:39:20.252Z,64.40
2018-07-04T14:41:59.060Z,64.50
2018-07-04T14:44:38.032Z,65.20
2018-07-04T14:47:16.907Z,64.20
2018-07-04T14:49:56.796Z,63.10
2018-07-04T14:52:35.862Z,63.40
2018-07-04T14:55:14.838Z,64.10
2018-07-04T14:57:54.139Z,63.70
2018-07-04T15:00:33.265Z,64.60
2018-07-04T15:03:12.285Z,63.80
2018-07-04T15:05:51.534Z,60.60
2018-07-04T15:08:30.959Z,61.50
2018-07-04T15:11:09.812Z,60.30
2018-07-04T15:13:49.094Z,62.00
2018-07-04T15:16:28.150Z,61.50
2018-07-04T15:19:07.061Z,62.00
2018-07-04T15:21:46.001Z,61.60
2018-07-04T15:24:24.949Z,62.00
2018-07-04T15:27:03.950Z,62.20
2018-07-04T15:29:42.967Z,62.00
2018-07-04T15:32:22.120Z,62.30
2018-07-04T15:35:01.294Z,61.90
2018-07-04T15:37:40.219Z,61.30
2018-07-04T15:40:19.173Z,61.90
2018-07-04T15:42:58.236Z,60.60
2018-07-04T15:45:37.033Z,59.00
2018-07-04T15:48:16.113Z,59.00
2018-07-04T15:50:55.149Z,59.60
2018-07-04T15:53:34.705Z,59.30
2018-07-04T15:56:13.619Z,59.60
2018-07-04T15:58:52.737Z,59.50
2018-07-04T16:01:31.556Z,59.00
2018-07-04T16:04:10.620Z,60.50
2018-07-04T16:06:49.510Z,60.50
2018-07-04T16:09:28.545Z,61.20
2018-07-04T16:12:08.204Z,61.30
2018-07-04T16:14:47.043Z,62.10
2018-07-04T16:17:25.888Z,62.10
2018-07-04T16:20:04.896Z,62.30
2018-07-04T16:22:43.992Z,62.00
2018-07-04T16:25:23.016Z,62.50
2018-07-04T16:28:01.982Z,61.80
2018-07-04T16:30:41.162Z,63.00
2018-07-04T16:33:20.149Z,61.00
2018-07-04T16:35:59.143Z,61.50
2018-07-04T16:38:38.208Z,62.70
2018-07-04T16:41:17.105Z,62.80
2018-07-04T16:43:56.146Z,63.40
2018-07-04T16:46:35.851Z,63.30
2018-07-04T16:49:14.841Z,63.60
2018-07-04T16:51:53.649Z,62.70
2018-07-04T16:54:32.610Z,63.30
2018-07-04T16:57:11.577Z,62.60
2018-07-04T16:59:50.500Z,62.60
2018-07-04T17:02:29.394Z,62.30
2018-07-04T17:05:08.344Z,62.20
2018-07-04T17:07:47.348Z,61.30
2018-07-04T17:10:26.443Z,62.00
2018-07-04T17:13:05.353Z,61.60
2018-07-04T17:15:44.450Z,62.40
2018-07-04T17:18:23.486Z,61.80
2018-07-04T17:21:02.563Z,60.80
2018-07-04T17:23:41.457Z,61.60
2018-07-04T17:26:20.308Z,61.30
2018-07-04T17:28:59.361Z,62.40
2018-07-04T17:31:38.306Z,60.50
2018-07-04T17:34:17.296Z,60.90
2018-07-04T17:36:56.295Z,61.30
2018-07-04T17:42:08.282Z,60.20
2018-07-04T17:44:47.233Z,59.10
2018-07-04T17:49:59.106Z,58.50
2018-07-04T17:52:38.114Z,58.60
2018-07-04T17:55:17.210Z,59.10
2018-07-04T17:57:57.598Z,58.40
2018-07-04T18:00:36.807Z,58.90
2018-07-04T18:03:15.849Z,58.90
2018-07-04T18:08:27.901Z,58.80
2018-07-04T18:11:06.944Z,58.70
2018-07-04T18:13:45.863Z,57.20
2018-07-04T18:16:24.845Z,58.30
2018-07-04T18:19:03.792Z,57.30
2018-07-04T18:21:42.953Z,56.90
2018-07-04T18:24:21.898Z,56.30
2018-07-04T18:27:00.819Z,56.10
2018-07-04T18:29:39.881Z,56.20
2018-07-04T18:32:18.892Z,56.00
2018-07-04T18:34:57.919Z,56.80
2018-07-04T18:37:37.739Z,56.10
2018-07-04T18:40:16.786Z,56.70
2018-07-04T18:42:56.011Z,55.60
2018-07-04T18:45:34.956Z,56.20
2018-07-04T18:48:13.980Z,55.50
2018-07-04T18:50:53.249Z,56.10
2018-07-04T18:53:32.333Z,55.20
2018-07-04T18:56:11.180Z,55.30
2018-07-04T18:58:50.155Z,56.40
2018-07-04T19:01:29.098Z,55.10
2018-07-04T19:04:08.230Z,55.60
2018-07-04T19:06:47.281Z,55.70
2018-07-04T19:09:26.394Z,56.30
2018-07-04T19:12:05.401Z,55.80
2018-07-04T19:14:44.616Z,56.30
2018-07-04T19:19:58.503Z,56.30
2018-07-04T19:22:37.432Z,56.20
2018-07-04T19:25:16.445Z,56.80
2018-07-04T19:27:55.429Z,57.40
2018-07-04T19:30:34.461Z,56.90
2018-07-04T19:33:13.489Z,57.60
2018-07-04T19:35:52.459Z,57.60
2018-07-04T19:38:31.377Z,58.20
2018-07-04T19:43:49.461Z,60.60
2018-07-04T19:46:28.689Z,61.00
2018-07-04T19:49:07.682Z,60.50
2018-07-04T19:51:46.517Z,61.10
2018-07-04T19:54:25.543Z,61.00
2018-07-04T19:57:04.786Z,60.60
2018-07-04T19:59:43.894Z,60.90
2018-07-04T20:02:23.029Z,60.50
2018-07-04T20:05:01.864Z,61.20
2018-07-04T20:07:41.909Z,59.60
2018-07-04T20:10:20.667Z,59.80
2018-07-04T20:12:59.833Z,61.00
2018-07-04T20:15:39.813Z,60.00
2018-07-04T20:18:18.869Z,60.80
2018-07-04T20:20:57.960Z,60.90
2018-07-04T20:23:37.022Z,61.00
2018-07-04T20:26:16.092Z,59.80
2018-07-04T20:28:55.194Z,59.20
2018-07-04T20:31:34.192Z,59.50
2018-07-04T20:34:13.192Z,60.60
2018-07-04T20:36:52.140Z,61.10
2018-07-04T20:39:31.322Z,60.70
2018-07-04T20:42:10.273Z,61.50
2018-07-04T20:44:49.314Z,62.20
2018-07-04T20:47:28.347Z,61.60
2018-07-04T20:50:07.289Z,61.40
2018-07-04T20:52:46.357Z,61.60
2018-07-04T20:55:25.648Z,62.00
2018-07-04T20:58:04.391Z,62.40
2018-07-04T21:03:17.818Z,62.00
2018-07-04T21:05:57.129Z,61.80
2018-07-04T21:08:36.530Z,61.90
2018-07-04T21:11:16.378Z,62.00
2018-07-04T21:13:58.604Z,62.30
2018-07-04T21:16:37.558Z,61.50
2018-07-04T21:19:16.581Z,61.90
2018-07-04T21:21:56.825Z,60.80
2018-07-04T21:24:35.777Z,61.50
2018-07-04T21:29:48.519Z,60.00
2018-07-04T21:32:29.776Z,61.00
2018-07-04T21:35:09.020Z,61.00
2018-07-04T21:37:48.448Z,61.50
2018-07-04T21:40:27.577Z,61.30
2018-07-04T21:43:06.749Z,61.80
2018-07-04T21:45:45.954Z,63.50
2018-07-04T21:48:24.809Z,63.10
2018-07-04T21:51:04.436Z,62.20
2018-07-04T21:53:44.342Z,62.80
2018-07-04T21:56:23.381Z,63.30
2018-07-04T22:01:35.636Z,63.30
2018-07-04T22:04:14.691Z,63.60
2018-07-04T22:06:54.146Z,62.60
2018-07-04T22:09:33.368Z,62.60
2018-07-04T22:12:12.385Z,62.40
2018-07-04T22:14:53.175Z,63.00
2018-07-04T22:17:33.744Z,63.50
2018-07-04T22:20:12.656Z,63.20
2018-07-04T22:22:51.431Z,63.00
2018-07-04T22:28:03.536Z,63.30
2018-07-04T22:30:42.501Z,63.30
2018-07-04T22:33:21.970Z,62.80
2018-07-04T22:36:01.190Z,62.70
2018-07-04T22:38:40.176Z,62.90
2018-07-04T22:41:19.252Z,62.90
2018-07-04T22:43:58.183Z,63.70
2018-07-04T22:46:37.280Z,64.00
2018-07-04T22:49:16.293Z,63.60
2018-07-04T22:51:56.948Z,64.60
2018-07-04T22:54:37.000Z,65.00
2018-07-04T22:57:15.998Z,64.90
2018-07-04T22:59:55.103Z,65.20
2018-07-04T23:02:34.098Z,63.70
2018-07-04T23:05:13.339Z,64.70
2018-07-04T23:07:53.422Z,64.90
2018-07-04T23:10:32.513Z,64.50
2018-07-04T23:13:11.392Z,66.40
2018-07-04T23:15:50.353Z,64.70
2018-07-04T23:18:29.213Z,64.90
2018-07-04T23:21:08.459Z,64.40
2018-07-04T23:23:47.919Z,64.20
2018-07-04T23:26:26.849Z,63.90
2018-07-04T23:29:05.678Z,64.40
2018-07-04T23:31:45.517Z,64.20
2018-07-04T23:34:24.572Z,65.70
2018-07-04T23:37:03.689Z,65.20
2018-07-04T23:39:42.568Z,65.10
2018-07-04T23:42:21.601Z,65.30
2018-07-04T23:45:00.689Z,65.50
2018-07-04T23:47:39.896Z,66.20
2018-07-04T23:50:18.902Z,65.60
2018-07-04T23:52:58.022Z,64.90
2018-07-04T23:55:37.403Z,65.60
2018-07-04T23:58:16.451Z,65.50
